7VA3 weather

Hopewell Heliport
Hopewell, Virginia, United States

Public forecast

Using degrees Fahrenheit for public forecast. Weather courtesy of forecast.io.

Closest aviation weather report (METAR) to Hopewell Heliport

Closest report is Dinwiddie County Airport, 12.9 nm (23.9 km) WSW. Retrieved 2019/10/18 07:35 UTC (25 minutes ago):

KPTB 180735Z AUTO 00000KT 10SM CLR 04/01 A2992 RMK AO2 T00370014

Closest aviation forecast (TAF) to Hopewell Heliport

Closest forecast is Richmond International Airport, 13.3 nm (24.6 km) N. Retrieved 2019/10/18 06:27 UTC (2 hours ago):

TAF KRIC 180525Z 1806/1906 29008KT P6SM SKC FM181400 32006KT P6SM SKC FM182300 VRB03KT P6SM SKC